Time;durP1;ratioP1;P1;durP2;ratioP2;P2;SDS_P1;SDS_P2;PMS_P1;PMS_P2;Temp;Humidity;BMP_temperature;BMP_pressure;BME280_temperature;BME280_humidity;BME280_pressure;Samples;Min_cycle;Max_cycle;Signal;HPM_P1;HPM_P2
2022/08/21 00:00:22;;;;;;;10.13;6.40;;;15.30;99.90;;;;;;5001182;28;20045;-86
2022/08/21 00:03:05;;;;;;;10.35;6.57;;;15.30;99.90;;;;;;4990238;28;20437;-86
2022/08/21 00:05:33;;;;;;;10.68;6.63;;;15.20;99.90;;;;;;4976446;28;20036;-86
2022/08/21 00:07:59;;;;;;;7.85;5.53;;;15.20;99.90;;;;;;4979913;28;20049;-85
2022/08/21 00:10:26;;;;;;;10.80;6.35;;;15.20;99.90;;;;;;4966084;28;20079;-86
2022/08/21 00:12:52;;;;;;;10.73;5.70;;;15.20;99.90;;;;;;5009816;28;20040;-86
2022/08/21 00:15:23;;;;;;;11.75;6.75;;;15.10;99.90;;;;;;4960931;28;20158;-87
2022/08/21 00:17:53;;;;;;;14.23;7.25;;;15.10;99.90;;;;;;4976663;28;20052;-86
2022/08/21 00:20:20;;;;;;;10.10;6.72;;;15.10;99.90;;;;;;4975255;28;20052;-86
2022/08/21 00:22:47;;;;;;;10.60;6.95;;;15.10;99.90;;;;;;4990878;28;20181;-86
2022/08/21 00:25:14;;;;;;;9.13;6.28;;;15.00;99.90;;;;;;4975693;28;20151;-85
2022/08/21 00:27:42;;;;;;;10.15;6.70;;;15.00;99.90;;;;;;4990402;28;20045;-86
2022/08/21 00:30:10;;;;;;;10.02;6.35;;;15.00;99.90;;;;;;5002754;28;20041;-86
2022/08/21 00:32:39;;;;;;;11.82;6.82;;;15.00;99.90;;;;;;4958442;28;20324;-86
2022/08/21 00:35:08;;;;;;;13.75;7.47;;;15.00;99.90;;;;;;5027350;28;20152;-86
2022/08/21 00:37:34;;;;;;;12.07;7.25;;;14.90;99.90;;;;;;4990534;28;20041;-86
2022/08/21 00:40:01;;;;;;;10.82;6.90;;;14.90;99.90;;;;;;4977765;28;20045;-86
2022/08/21 00:42:30;;;;;;;10.98;7.88;;;14.90;99.90;;;;;;4993864;28;20057;-86
2022/08/21 00:44:56;;;;;;;11.93;7.82;;;14.80;99.90;;;;;;4990335;28;20061;-86
2022/08/21 00:47:22;;;;;;;16.00;8.40;;;14.80;99.90;;;;;;4987689;28;20051;-86
2022/08/21 00:49:48;;;;;;;14.20;7.80;;;14.80;99.90;;;;;;4979465;28;20465;-86
2022/08/21 00:52:23;;;;;;;12.68;7.47;;;14.70;99.90;;;;;;4973611;28;20049;-86
2022/08/21 00:54:50;;;;;;;10.90;8.52;;;14.70;99.90;;;;;;4982623;28;20467;-86
2022/08/21 00:57:21;;;;;;;10.73;7.68;;;14.70;99.90;;;;;;5019877;28;20496;-85
2022/08/21 00:59:51;;;;;;;12.38;7.53;;;14.60;99.90;;;;;;5023353;28;20481;-86
2022/08/21 01:02:19;;;;;;;12.32;9.20;;;14.60;99.90;;;;;;5002291;28;20048;-86
2022/08/21 01:04:50;;;;;;;13.27;7.82;;;14.60;99.90;;;;;;5006269;28;20044;-86
2022/08/21 01:07:16;;;;;;;15.40;10.13;;;14.50;99.90;;;;;;4980557;28;20670;-86
2022/08/21 01:09:43;;;;;;;13.63;9.40;;;14.50;99.90;;;;;;4974389;28;20054;-86
2022/08/21 01:12:11;;;;;;;12.98;9.10;;;14.50;99.90;;;;;;4991011;28;20080;-86
2022/08/21 01:14:38;;;;;;;14.52;9.35;;;14.50;99.90;;;;;;4969295;28;20464;-86
2022/08/21 01:17:05;;;;;;;15.10;10.30;;;14.50;99.90;;;;;;4975808;28;20375;-86
2022/08/21 01:19:32;;;;;;;13.60;9.77;;;14.40;99.90;;;;;;4990416;28;20049;-86
2022/08/21 01:21:59;;;;;;;13.88;10.38;;;14.40;99.90;;;;;;4974122;28;20087;-86
2022/08/21 01:24:26;;;;;;;17.83;10.40;;;14.40;99.90;;;;;;4980303;28;20041;-86
2022/08/21 01:26:52;;;;;;;15.32;10.35;;;14.40;99.90;;;;;;4974387;28;20476;-86
2022/08/21 01:29:41;;;;;;;15.65;11.07;;;14.30;99.90;;;;;;4993994;28;20408;-86
2022/08/21 01:32:11;;;;;;;14.07;10.93;;;14.30;99.90;;;;;;5022059;28;20507;-86
2022/08/21 01:34:39;;;;;;;12.90;10.82;;;14.30;99.90;;;;;;5009145;28;20057;-86
2022/08/21 01:37:05;;;;;;;13.40;9.85;;;14.30;99.90;;;;;;5006803;28;20078;-86
2022/08/21 01:39:33;;;;;;;12.82;9.10;;;14.20;99.90;;;;;;4982555;28;20241;-86
2022/08/21 01:41:59;;;;;;;10.93;9.60;;;14.20;99.90;;;;;;5017034;28;20368;-86
2022/08/21 01:44:26;;;;;;;12.98;9.45;;;14.20;99.90;;;;;;4959204;28;20478;-86
2022/08/21 01:46:52;;;;;;;10.20;8.77;;;14.10;99.90;;;;;;4979355;28;20047;-86
2022/08/21 01:49:19;;;;;;;11.55;9.98;;;14.20;99.90;;;;;;4960459;28;20041;-86
2022/08/21 01:51:45;;;;;;;11.45;9.73;;;14.10;99.90;;;;;;4990132;28;20456;-86
2022/08/21 01:54:12;;;;;;;13.38;9.52;;;14.10;99.90;;;;;;4993986;28;20045;-86
2022/08/21 01:56:41;;;;;;;13.52;10.10;;;14.10;99.90;;;;;;4961274;28;20049;-86
2022/08/21 01:59:09;;;;;;;10.38;9.27;;;14.10;99.90;;;;;;5002282;28;20049;-86
2022/08/21 02:01:36;;;;;;;10.55;9.18;;;14.00;99.90;;;;;;4992861;28;20059;-86
2022/08/21 02:04:02;;;;;;;13.38;10.57;;;13.90;99.90;;;;;;4998955;28;20041;-86
2022/08/21 02:06:29;;;;;;;17.00;11.65;;;13.90;99.90;;;;;;4989483;28;20745;-86
2022/08/21 02:08:55;;;;;;;14.50;11.57;;;13.90;99.90;;;;;;5012045;28;20186;-86
2022/08/21 02:11:21;;;;;;;12.27;10.10;;;13.90;99.90;;;;;;4961386;28;20106;-86
2022/08/21 02:13:47;;;;;;;11.52;9.48;;;13.80;99.90;;;;;;4995257;28;20396;-86
2022/08/21 02:16:14;;;;;;;14.73;10.77;;;13.90;99.90;;;;;;5017865;28;20041;-86
2022/08/21 02:18:41;;;;;;;14.20;12.80;;;13.90;99.90;;;;;;4948851;28;20392;-86
2022/08/21 02:21:07;;;;;;;14.35;12.65;;;13.80;99.90;;;;;;5010429;28;20044;-88
2022/08/21 02:23:33;;;;;;;19.98;13.98;;;13.80;99.90;;;;;;5013327;28;20626;-86
2022/08/21 02:26:02;;;;;;;13.95;12.40;;;13.80;99.90;;;;;;4995289;28;20527;-86
2022/08/21 02:28:28;;;;;;;16.15;12.18;;;13.80;99.90;;;;;;5007376;28;20147;-86
2022/08/21 02:30:56;;;;;;;14.45;13.05;;;13.90;99.90;;;;;;4996473;28;20455;-86
2022/08/21 02:33:23;;;;;;;15.80;13.75;;;13.80;99.90;;;;;;5010577;28;20049;-86
2022/08/21 02:35:50;;;;;;;14.18;12.75;;;13.80;99.90;;;;;;5029211;28;20511;-86
2022/08/21 02:38:20;;;;;;;14.63;13.15;;;13.70;99.90;;;;;;4995321;28;20037;-87
2022/08/21 02:40:48;;;;;;;16.60;14.75;;;13.70;99.90;;;;;;4991581;28;20041;-87
2022/08/21 02:43:16;;;;;;;15.43;13.93;;;13.70;99.90;;;;;;5007211;28;20052;-86
2022/08/21 02:45:43;;;;;;;17.05;13.65;;;13.70;99.90;;;;;;4966087;28;20045;-86
2022/08/21 02:48:18;;;;;;;15.30;12.98;;;13.60;99.90;;;;;;4999136;28;20425;-86
2022/08/21 02:50:48;;;;;;;15.63;13.48;;;13.60;99.90;;;;;;5012836;28;20287;-86
2022/08/21 02:53:16;;;;;;;13.90;12.55;;;13.60;99.90;;;;;;4999193;28;20041;-86
2022/08/21 02:55:45;;;;;;;14.93;13.43;;;13.50;99.90;;;;;;5001585;28;20037;-86
2022/08/21 02:58:15;;;;;;;15.23;12.18;;;13.50;99.90;;;;;;5010755;28;20031;-86
2022/08/21 03:00:43;;;;;;;17.15;12.73;;;13.60;99.90;;;;;;5018201;28;20361;-86
2022/08/21 03:03:09;;;;;;;13.77;11.98;;;13.50;99.90;;;;;;5011360;28;20465;-86
2022/08/21 03:05:39;;;;;;;14.55;12.52;;;13.50;99.90;;;;;;5012620;28;20049;-87
2022/08/21 03:08:10;;;;;;;14.43;13.02;;;13.50;99.90;;;;;;5019102;28;20424;-86
2022/08/21 03:10:39;;;;;;;14.23;12.73;;;13.50;99.90;;;;;;5014266;28;20040;-87
2022/08/21 03:13:06;;;;;;;14.52;12.40;;;13.40;99.90;;;;;;5006084;28;20491;-87
2022/08/21 03:15:33;;;;;;;12.73;11.50;;;13.40;99.90;;;;;;4998979;28;20047;-86
2022/08/21 03:18:03;;;;;;;13.60;11.82;;;13.40;99.90;;;;;;5000473;28;20056;-86
2022/08/21 03:20:34;;;;;;;14.05;12.63;;;13.30;99.90;;;;;;4998728;28;20045;-87
2022/08/21 03:23:03;;;;;;;12.68;11.32;;;13.40;99.90;;;;;;4999394;28;20436;-86
2022/08/21 03:25:31;;;;;;;14.75;13.45;;;13.30;99.90;;;;;;5026552;28;20453;-86
2022/08/21 03:27:58;;;;;;;14.10;12.70;;;13.30;99.90;;;;;;5009779;28;20049;-86
2022/08/21 03:30:25;;;;;;;14.73;13.20;;;13.30;99.90;;;;;;4975289;28;20087;-87
2022/08/21 03:32:52;;;;;;;15.68;14.25;;;13.30;99.90;;;;;;5012594;28;20039;-87
2022/08/21 03:35:19;;;;;;;14.70;12.77;;;13.30;99.90;;;;;;4995390;28;20041;-87
2022/08/21 03:37:46;;;;;;;16.45;14.80;;;13.30;99.90;;;;;;5031340;28;20048;-87
2022/08/21 03:40:16;;;;;;;17.02;15.00;;;13.30;99.90;;;;;;4995226;28;20041;-87
2022/08/21 03:42:42;;;;;;;15.95;14.43;;;13.30;99.90;;;;;;5014666;28;20571;-87
2022/08/21 03:45:09;;;;;;;15.15;13.60;;;13.30;99.90;;;;;;5044837;28;20123;-87
2022/08/21 03:47:36;;;;;;;15.73;13.50;;;13.30;99.90;;;;;;4998682;28;20238;-86
2022/08/21 03:50:05;;;;;;;16.92;14.50;;;13.30;99.90;;;;;;5000315;28;20048;-87
2022/08/21 03:52:31;;;;;;;14.48;13.15;;;13.30;99.90;;;;;;4996675;28;20049;-86
2022/08/21 03:55:03;;;;;;;16.63;14.85;;;13.30;99.90;;;;;;4985367;28;20411;-87
2022/08/21 03:57:29;;;;;;;17.63;15.55;;;13.30;99.90;;;;;;5031841;28;20045;-86
2022/08/21 03:59:55;;;;;;;16.58;14.23;;;13.30;99.90;;;;;;4983748;28;20087;-86
2022/08/21 04:02:22;;;;;;;19.08;15.45;;;13.30;99.90;;;;;;4998517;28;20575;-86
2022/08/21 04:04:48;;;;;;;15.50;13.75;;;13.30;99.90;;;;;;5012443;28;20135;-86
2022/08/21 04:07:17;;;;;;;16.55;14.75;;;13.30;99.90;;;;;;5002350;28;20131;-87
2022/08/21 04:09:43;;;;;;;19.60;14.63;;;13.30;99.90;;;;;;4964754;28;20044;-87
2022/08/21 04:12:09;;;;;;;14.80;12.95;;;13.30;99.90;;;;;;4990146;28;20045;-87
2022/08/21 04:14:36;;;;;;;16.55;14.85;;;13.30;99.90;;;;;;4974895;28;20193;-87
2022/08/21 04:17:02;;;;;;;17.02;15.35;;;13.30;99.90;;;;;;4992067;28;20052;-87
2022/08/21 04:19:28;;;;;;;17.85;15.98;;;13.30;99.90;;;;;;4994452;28;20120;-86
2022/08/21 04:21:54;;;;;;;20.85;16.45;;;13.20;99.90;;;;;;4978166;28;20223;-86
2022/08/21 04:24:20;;;;;;;18.80;16.83;;;13.20;99.90;;;;;;4979281;28;20041;-87
2022/08/21 04:26:46;;;;;;;21.23;18.38;;;13.20;99.90;;;;;;4991879;28;20045;-87
2022/08/21 04:29:13;;;;;;;18.40;14.40;;;13.20;99.90;;;;;;4994169;28;20052;-87
2022/08/21 04:31:39;;;;;;;19.38;15.18;;;13.20;99.90;;;;;;4981208;28;20114;-86
2022/08/21 04:34:09;;;;;;;18.90;17.00;;;13.20;99.90;;;;;;4981710;28;20443;-87
2022/08/21 04:36:35;;;;;;;19.50;16.63;;;13.20;99.90;;;;;;5010426;28;20057;-86
2022/08/21 04:39:03;;;;;;;18.90;15.48;;;13.20;99.90;;;;;;5014792;28;20163;-87
2022/08/21 04:41:30;;;;;;;17.67;15.63;;;13.20;99.90;;;;;;5014171;28;20051;-87
2022/08/21 04:43:59;;;;;;;17.95;16.27;;;13.20;99.90;;;;;;5028759;28;20044;-87
2022/08/21 04:46:25;;;;;;;19.95;16.08;;;13.30;99.90;;;;;;5008428;28;20060;-87
2022/08/21 04:48:51;;;;;;;18.80;16.45;;;13.40;99.90;;;;;;4981537;28;20044;-87
2022/08/21 04:51:34;;;;;;;32.65;14.68;;;13.30;99.90;;;;;;4994361;28;20059;-87
2022/08/21 04:54:17;;;;;;;17.75;15.43;;;13.40;99.90;;;;;;4980964;28;20064;-87
2022/08/21 04:56:54;;;;;;;17.90;15.95;;;13.40;99.90;;;;;;4996070;28;20106;-87
2022/08/21 04:59:29;;;;;;;19.55;15.63;;;13.40;99.90;;;;;;4995909;28;20557;-87
2022/08/21 05:01:56;;;;;;;17.27;14.82;;;13.40;99.90;;;;;;4997383;28;20044;-87
2022/08/21 05:04:26;;;;;;;15.77;14.02;;;13.40;99.90;;;;;;5008920;28;20093;-87
2022/08/21 05:06:54;;;;;;;17.17;14.70;;;13.50;99.90;;;;;;5020576;28;20081;-86
2022/08/21 05:09:23;;;;;;;15.80;14.30;;;13.50;99.90;;;;;;5002905;28;20041;-88
2022/08/21 05:11:51;;;;;;;15.88;14.20;;;13.50;99.90;;;;;;4999941;28;20037;-87
2022/08/21 05:14:19;;;;;;;21.02;14.63;;;13.50;99.90;;;;;;5008923;28;20041;-87
2022/08/21 05:16:46;;;;;;;21.27;15.02;;;13.60;99.90;;;;;;4986321;28;20033;-87
2022/08/21 05:19:13;;;;;;;17.73;15.73;;;13.60;99.90;;;;;;5016831;28;20128;-87
2022/08/21 05:21:43;;;;;;;16.02;14.00;;;13.60;99.90;;;;;;4986477;28;20067;-87
2022/08/21 05:24:10;;;;;;;16.40;14.77;;;13.70;99.90;;;;;;5006701;28;20045;-87
2022/08/21 05:26:37;;;;;;;18.10;13.55;;;13.80;99.90;;;;;;5033386;28;20044;-87
2022/08/21 05:29:04;;;;;;;14.82;13.27;;;13.90;99.90;;;;;;4996626;28;20040;-87
2022/08/21 05:31:30;;;;;;;13.27;11.13;;;14.10;99.90;;;;;;5018934;28;20079;-87
2022/08/21 05:33:59;;;;;;;13.18;11.77;;;14.30;99.90;;;;;;4982369;28;20057;-88
2022/08/21 05:36:26;;;;;;;16.38;11.48;;;14.50;99.90;;;;;;4980885;28;20049;-87
2022/08/21 05:38:52;;;;;;;11.25;9.88;;;14.60;99.90;;;;;;5021650;28;20120;-87
2022/08/21 05:41:18;;;;;;;12.35;11.07;;;14.80;99.90;;;;;;4968260;28;20080;-87
2022/08/21 05:43:47;;;;;;;14.75;10.63;;;14.90;99.90;;;;;;4959196;28;20358;-87
2022/08/21 05:46:13;;;;;;;13.20;9.63;;;15.00;99.90;;;;;;4959873;28;20412;-87
2022/08/21 05:48:42;;;;;;;11.13;9.25;;;15.10;99.90;;;;;;4977840;28;20049;-87
2022/08/21 05:51:13;;;;;;;12.63;8.77;;;15.40;99.90;;;;;;4960741;28;20052;-88
2022/08/21 05:53:43;;;;;;;11.00;9.27;;;15.60;99.90;;;;;;5026870;28;20063;-87
2022/08/21 05:56:11;;;;;;;12.93;8.23;;;15.70;99.90;;;;;;4970090;28;20363;-89
2022/08/21 05:58:38;;;;;;;12.15;8.45;;;15.90;99.90;;;;;;5003503;28;20432;-88
2022/08/21 06:01:05;;;;;;;13.95;10.32;;;16.00;99.90;;;;;;5012415;28;20206;-88
2022/08/21 06:03:36;;;;;;;10.25;7.65;;;16.20;99.90;;;;;;4997623;28;20072;-88
2022/08/21 06:06:06;;;;;;;10.25;7.97;;;16.30;99.90;;;;;;4995468;28;20107;-87
2022/08/21 06:08:33;;;;;;;10.60;7.82;;;16.60;99.90;;;;;;5029551;28;20065;-88
2022/08/21 06:11:02;;;;;;;9.85;7.30;;;16.60;99.90;;;;;;5027025;28;20055;-88
2022/08/21 06:13:28;;;;;;;9.27;7.60;;;16.90;99.90;;;;;;4985869;28;20952;-87
2022/08/21 06:16:09;;;;;;;11.13;7.25;;;17.00;99.90;;;;;;4960763;28;20052;-88
2022/08/21 06:18:36;;;;;;;13.60;6.50;;;17.00;99.90;;;;;;4977218;28;20044;-88
2022/08/21 06:21:03;;;;;;;11.82;6.65;;;17.30;99.90;;;;;;5028882;28;20072;-89
2022/08/21 06:23:30;;;;;;;9.80;6.97;;;17.50;99.90;;;;;;4962335;28;20055;-88
2022/08/21 06:25:58;;;;;;;13.40;7.68;;;17.70;99.90;;;;;;4962635;28;20051;-86
2022/08/21 06:28:24;;;;;;;9.32;6.60;;;17.70;99.90;;;;;;4969738;28;20445;-87
2022/08/21 06:30:54;;;;;;;11.27;8.63;;;17.90;99.90;;;;;;5010006;28;20056;-87
2022/08/21 06:33:20;;;;;;;12.85;6.30;;;18.00;99.90;;;;;;4977413;28;20056;-87
2022/08/21 06:35:46;;;;;;;15.30;7.03;;;18.10;99.90;;;;;;4958874;28;20041;-86
2022/08/21 06:38:12;;;;;;;9.73;6.53;;;18.30;99.90;;;;;;4972908;28;20433;-86
2022/08/21 06:40:39;;;;;;;14.02;5.88;;;18.50;99.90;;;;;;5008320;28;20053;-86
2022/08/21 06:43:09;;;;;;;10.70;6.47;;;18.60;99.90;;;;;;4986943;28;20081;-85
2022/08/21 06:45:35;;;;;;;16.55;6.75;;;18.70;99.90;;;;;;4991695;28;20060;-87
2022/08/21 06:57:32;;;;;;;11.98;6.13;;;19.30;99.90;;;;;;4979951;28;20778;-87
2022/08/21 06:59:59;;;;;;;10.20;5.45;;;19.50;99.90;;;;;;4979464;28;20128;-87
2022/08/21 07:02:25;;;;;;;9.35;5.22;;;19.80;99.90;;;;;;4968742;28;20135;-88
2022/08/21 07:04:52;;;;;;;13.65;5.63;;;20.00;99.90;;;;;;4981310;28;20049;-87
2022/08/21 07:07:18;;;;;;;10.93;5.20;;;20.40;99.90;;;;;;5013005;28;20064;-86
2022/08/21 07:09:45;;;;;;;11.18;5.10;;;20.60;99.90;;;;;;4982411;28;20048;-87
2022/08/21 07:12:23;;;;;;;9.48;5.70;;;20.70;99.90;;;;;;5008513;28;20100;-87
2022/08/21 07:15:02;;;;;;;9.68;5.05;;;20.90;99.90;;;;;;4996628;28;20045;-87
2022/08/21 07:17:36;;;;;;;10.10;5.17;;;21.00;99.90;;;;;;4976392;28;20034;-87
2022/08/21 07:20:04;;;;;;;9.35;5.88;;;21.20;99.90;;;;;;5010980;28;20304;-87
2022/08/21 07:22:31;;;;;;;9.18;4.43;;;21.30;99.90;;;;;;5030919;28;20037;-87
2022/08/21 07:24:57;;;;;;;11.18;4.30;;;21.70;99.90;;;;;;4998443;28;20090;-87
2022/08/21 07:27:26;;;;;;;10.20;4.13;;;21.90;99.90;;;;;;4981421;28;20056;-87
2022/08/21 07:29:53;;;;;;;11.52;4.00;;;22.20;99.90;;;;;;5014683;28;20048;-87
2022/08/21 07:32:19;;;;;;;10.32;4.50;;;22.50;99.90;;;;;;4996601;28;20560;-87
2022/08/21 07:34:46;;;;;;;10.38;4.18;;;22.50;99.90;;;;;;4993307;28;20041;-87
2022/08/21 07:37:12;;;;;;;8.45;4.00;;;22.90;99.90;;;;;;4999824;28;20491;-86
2022/08/21 07:39:41;;;;;;;7.40;3.00;;;23.10;99.90;;;;;;5009548;28;20150;-86
2022/08/21 07:42:07;;;;;;;10.23;3.20;;;23.20;99.90;;;;;;4978097;28;20045;-85
2022/08/21 07:44:34;;;;;;;7.90;2.85;;;23.20;99.90;;;;;;4963110;28;20520;-85
2022/08/21 07:47:01;;;;;;;11.55;3.95;;;23.10;99.90;;;;;;4997964;28;20531;-86
2022/08/21 07:49:27;;;;;;;7.10;3.25;;;23.40;99.90;;;;;;5000703;28;20135;-86
2022/08/21 07:51:54;;;;;;;10.02;2.97;;;23.50;99.90;;;;;;4993723;28;20056;-86
2022/08/21 07:54:21;;;;;;;9.52;2.60;;;23.90;99.90;;;;;;4991090;28;20109;-85
2022/08/21 07:56:48;;;;;;;9.95;3.00;;;24.00;99.90;;;;;;4961796;28;20041;-85
2022/08/21 07:59:17;;;;;;;8.70;4.80;;;24.10;99.90;;;;;;5040828;28;20048;-85
2022/08/21 08:01:43;;;;;;;9.43;2.70;;;23.90;99.90;;;;;;4977728;28;20505;-86
2022/08/21 08:04:09;;;;;;;6.70;2.60;;;24.30;99.90;;;;;;5012959;28;20044;-86
2022/08/21 08:06:35;;;;;;;9.25;3.83;;;24.20;99.90;;;;;;4976676;28;20041;-86
2022/08/21 08:09:03;;;;;;;12.18;4.47;;;24.20;99.90;;;;;;4982345;28;20055;-86
2022/08/21 08:11:30;;;;;;;7.65;2.90;;;24.20;99.90;;;;;;4998783;28;20459;-86
2022/08/21 08:13:59;;;;;;;9.88;3.53;;;24.20;99.90;;;;;;4980249;28;20040;-84
2022/08/21 08:16:26;;;;;;;10.20;3.45;;;24.30;99.90;;;;;;4979168;28;20578;-85
2022/08/21 08:18:55;;;;;;;9.85;3.20;;;24.60;99.90;;;;;;5011199;28;20137;-85
2022/08/21 08:21:21;;;;;;;8.68;3.42;;;24.60;99.90;;;;;;4980196;28;20046;-85
2022/08/21 08:23:48;;;;;;;10.20;4.32;;;24.50;99.90;;;;;;5006717;28;20045;-86
2022/08/21 08:26:18;;;;;;;9.75;3.00;;;24.40;99.90;;;;;;4984739;28;20052;-85
2022/08/21 08:28:46;;;;;;;7.20;2.97;;;24.60;99.90;;;;;;5030949;28;20072;-85
2022/08/21 08:31:14;;;;;;;12.35;4.43;;;24.50;99.90;;;;;;5003810;28;20386;-85
2022/08/21 08:33:41;;;;;;;12.00;3.45;;;24.80;99.90;;;;;;5017715;28;20051;-85
2022/08/21 08:36:14;;;;;;;10.63;3.33;;;24.90;99.90;;;;;;5001594;28;20412;-85
2022/08/21 08:38:40;;;;;;;9.35;2.50;;;25.10;99.90;;;;;;5022768;28;20045;-85
2022/08/21 08:41:15;;;;;;;9.52;4.50;;;25.70;99.90;;;;;;5002372;28;20051;-84
2022/08/21 08:43:50;;;;;;;8.70;3.83;;;25.90;99.70;;;;;;5018071;28;20037;-85
2022/08/21 08:46:20;;;;;;;9.20;3.08;;;26.40;99.50;;;;;;5006285;28;20123;-85
2022/08/21 08:48:52;;;;;;;9.95;3.72;;;26.20;98.00;;;;;;5002571;28;20056;-86
2022/08/21 08:51:40;;;;;;;11.35;3.30;;;25.00;98.50;;;;;;5000152;28;20046;-85
2022/08/21 08:54:17;;;;;;;6.88;3.13;;;24.80;99.90;;;;;;5000964;28;20489;-86
2022/08/21 08:56:45;;;;;;;8.43;3.30;;;24.10;99.90;;;;;;4990020;28;20040;-86
2022/08/21 08:59:17;;;;;;;9.85;3.45;;;23.80;99.90;;;;;;4966039;28;21184;-85
2022/08/21 09:01:44;;;;;;;10.77;3.15;;;23.10;99.90;;;;;;4996134;28;20047;-85
2022/08/21 09:04:12;;;;;;;8.35;3.03;;;23.00;99.90;;;;;;5011304;28;20052;-85
2022/08/21 09:07:13;;;;;;;9.57;3.00;;;23.00;99.90;;;;;;4991288;28;20092;-86
2022/08/21 09:10:17;;;;;;;7.88;3.10;;;23.80;99.90;;;;;;5005838;28;20055;-86
2022/08/21 09:13:01;;;;;;;10.38;3.15;;;24.60;99.90;;;;;;5012127;28;20087;-86
2022/08/21 09:16:07;;;;;;;7.90;2.92;;;25.50;99.90;;;;;;4983344;28;20095;-86
2022/08/21 09:18:54;;;;;;;8.30;2.90;;;25.80;97.70;;;;;;5005561;28;20048;-85
2022/08/21 09:22:00;;;;;;;8.32;3.80;;;26.20;95.40;;;;;;4984274;28;20087;-86
2022/08/21 09:25:01;;;;;;;9.38;2.70;;;26.30;93.40;;;;;;4994783;28;20049;-86
2022/08/21 09:27:28;;;;;;;8.65;2.60;;;26.40;91.30;;;;;;5009191;28;20067;-87
2022/08/21 09:29:57;;;;;;;7.60;2.10;;;26.70;93.20;;;;;;4994790;28;20110;-87
2022/08/21 09:32:29;;;;;;;9.23;2.85;;;27.30;91.40;;;;;;4948113;28;20412;-87
2022/08/21 09:35:04;;;;;;;3.90;1.45;;;27.30;90.30;;;;;;5017946;28;20076;-86
2022/08/21 09:37:34;;;;;;;8.30;1.90;;;27.40;83.80;;;;;;5009054;28;20056;-87
2022/08/21 09:40:15;;;;;;;4.88;1.23;;;27.70;80.90;;;;;;5001271;28;20071;-87
2022/08/21 09:42:41;;;;;;;;;;;28.00;79.60;;;;;;4992309;28;20048;-87
2022/08/21 09:45:13;;;;;;;7.68;1.98;;;28.30;70.20;;;;;;5017155;28;19920;-86
2022/08/21 09:47:40;;;;;;;6.93;1.58;;;28.00;76.60;;;;;;5012831;28;20041;-87
2022/08/21 09:50:19;;;;;;;6.05;1.42;;;28.60;78.10;;;;;;5010858;28;20083;-86
2022/08/21 09:53:10;;;;;;;7.13;2.22;;;28.50;72.20;;;;;;4997304;28;20081;-85
2022/08/21 09:58:46;;;;;;;7.65;2.05;;;28.10;72.20;;;;;;4991500;28;20468;-86
2022/08/21 10:01:23;;;;;;;5.15;1.70;;;28.50;75.30;;;;;;5022637;28;20135;-86
2022/08/21 10:04:07;;;;;;;7.47;1.70;;;28.70;72.20;;;;;;4994770;28;20055;-86
2022/08/21 10:06:34;;;;;;;7.63;2.08;;;29.20;70.30;;;;;;5029151;28;20048;-86
2022/08/21 10:09:12;;;;;;;9.60;2.20;;;28.80;70.80;;;;;;4990360;28;20073;-86
2022/08/21 10:11:42;;;;;;;6.47;1.83;;;28.70;70.60;;;;;;4995796;28;20064;-86
2022/08/21 10:14:33;;;;;;;7.25;1.83;;;28.90;70.30;;;;;;4987990;28;20493;-86
2022/08/21 10:17:08;;;;;;;9.23;2.33;;;29.10;71.00;;;;;;4994343;28;20091;-86
2022/08/21 10:20:02;;;;;;;5.22;1.90;;;28.40;72.80;;;;;;5021192;28;20517;-84
2022/08/21 10:22:31;;;;;;;7.43;2.38;;;28.60;71.20;;;;;;4972383;28;20054;-87
2022/08/21 10:25:12;;;;;;;6.35;1.55;;;29.40;72.50;;;;;;4981382;28;20045;-85
2022/08/21 10:28:07;;;;;;;9.38;2.13;;;29.10;68.50;;;;;;4992882;28;20045;-86
2022/08/21 10:30:46;;;;;;;6.28;1.80;;;29.40;69.50;;;;;;5005618;28;20473;-85
2022/08/21 10:33:21;;;;;;;8.43;2.63;;;30.10;71.70;;;;;;4993953;28;20152;-86
2022/08/21 10:36:03;;;;;;;8.20;2.42;;;30.10;71.40;;;;;;4976326;28;20049;-85
2022/08/21 10:39:05;;;;;;;5.45;1.83;;;30.20;66.20;;;;;;4994471;28;20037;-85
2022/08/21 10:42:08;;;;;;;6.50;1.30;;;30.70;66.40;;;;;;4993927;28;20490;-86
2022/08/21 10:44:40;;;;;;;7.32;2.00;;;30.60;63.10;;;;;;4979007;28;20468;-86
2022/08/21 10:47:16;;;;;;;8.13;2.40;;;30.90;64.40;;;;;;4996833;28;20041;-86
2022/08/21 10:49:51;;;;;;;7.30;1.90;;;29.90;64.30;;;;;;4975408;28;20779;-86
2022/08/21 10:52:39;;;;;;;22.35;19.95;;;29.00;66.00;;;;;;4972214;28;20046;-86
2022/08/21 10:55:36;;;;;;;10.30;6.85;;;28.80;67.10;;;;;;4993515;28;20485;-86
2022/08/21 10:58:17;;;;;;;7.05;2.67;;;29.20;67.10;;;;;;5005302;28;20043;-85
2022/08/21 11:00:49;;;;;;;22.83;20.60;;;29.70;68.40;;;;;;4990458;28;20041;-85
2022/08/21 11:03:33;;;;;;;19.20;17.27;;;30.10;65.40;;;;;;5007194;28;20045;-86
2022/08/21 11:06:24;;;;;;;16.13;14.23;;;30.60;61.40;;;;;;5004390;28;20044;-86
2022/08/21 11:08:59;;;;;;;13.90;12.32;;;30.90;62.80;;;;;;5024966;28;20061;-86
2022/08/21 11:11:31;;;;;;;6.78;3.33;;;31.20;62.50;;;;;;5027599;28;20432;-85
2022/08/21 11:14:45;;;;;;;9.20;4.28;;;31.30;63.50;;;;;;5026286;28;20037;-85
2022/08/21 11:17:14;;;;;;;15.45;11.70;;;31.60;60.10;;;;;;4985276;28;20601;-85
2022/08/21 11:19:47;;;;;;;9.20;5.22;;;31.70;61.60;;;;;;5016876;28;20041;-85
2022/08/21 11:22:17;;;;;;;12.35;8.13;;;31.10;59.20;;;;;;5011087;28;20056;-85
2022/08/21 11:25:02;;;;;;;9.65;2.22;;;30.20;60.50;;;;;;5026541;28;20399;-85
2022/08/21 11:27:33;;;;;;;4.93;1.60;;;30.00;61.80;;;;;;5009435;28;20079;-86
2022/08/21 11:30:00;;;;;;;7.00;2.28;;;30.60;63.70;;;;;;5013302;28;20484;-85
2022/08/21 11:32:42;;;;;;;7.10;3.30;;;30.70;61.40;;;;;;4998198;28;20411;-86
2022/08/21 11:35:33;;;;;;;7.80;1.77;;;30.30;60.60;;;;;;5029860;28;20050;-86
2022/08/21 11:38:35;;;;;;;9.35;4.45;;;30.80;61.70;;;;;;5028258;28;20483;-86
2022/08/21 11:41:37;;;;;;;4.18;1.27;;;29.90;60.30;;;;;;4997360;28;20438;-86
2022/08/21 11:44:34;;;;;;;8.13;2.33;;;30.00;59.40;;;;;;4982008;28;20051;-86
2022/08/21 11:47:15;;;;;;;5.38;2.03;;;30.60;59.10;;;;;;5013828;28;20074;-86
2022/08/21 11:50:07;;;;;;;6.88;3.38;;;30.80;58.40;;;;;;5011765;28;20048;-86
2022/08/21 11:52:40;;;;;;;4.85;1.65;;;31.20;59.40;;;;;;4993274;28;20501;-86
2022/08/21 11:55:24;;;;;;;8.27;3.83;;;31.00;59.30;;;;;;5012599;28;20048;-86
2022/08/21 11:57:56;;;;;;;7.22;2.63;;;30.90;57.60;;;;;;5028292;28;20044;-86
2022/08/21 12:00:43;;;;;;;6.28;1.75;;;30.30;60.70;;;;;;4992384;28;20092;-86
2022/08/21 12:03:29;;;;;;;11.90;6.95;;;30.30;60.30;;;;;;4997023;28;20040;-86
2022/08/21 12:06:00;;;;;;;18.27;15.45;;;29.80;60.30;;;;;;4991840;28;20110;-86
2022/08/21 12:08:31;;;;;;;19.55;14.38;;;29.40;60.10;;;;;;4985914;28;20595;-86
2022/08/21 12:11:22;;;;;;;9.90;4.65;;;28.90;61.20;;;;;;4990558;28;20073;-86
2022/08/21 12:14:12;;;;;;;7.68;2.05;;;28.60;61.20;;;;;;4993536;28;20044;-86
2022/08/21 12:16:41;;;;;;;19.08;16.60;;;28.20;62.10;;;;;;4991960;28;20041;-86
2022/08/21 12:19:28;;;;;;;7.50;3.50;;;28.00;63.30;;;;;;5006425;28;20045;-85
2022/08/21 12:21:57;;;;;;;9.55;4.82;;;27.70;65.00;;;;;;5006877;28;20314;-86
2022/08/21 12:24:26;;;;;;;10.77;5.70;;;27.30;65.70;;;;;;4991806;28;20053;-85
2022/08/21 12:26:58;;;;;;;7.80;2.17;;;27.10;67.30;;;;;;4975581;28;20045;-87
2022/08/21 12:29:31;;;;;;;7.20;2.63;;;27.00;68.60;;;;;;4987811;28;20041;-86
2022/08/21 12:32:05;;;;;;;6.45;2.53;;;27.10;69.10;;;;;;4974984;28;20049;-86
2022/08/21 12:34:50;;;;;;;69.63;63.10;;;28.10;67.00;;;;;;4995045;28;20496;-85
2022/08/21 12:37:35;;;;;;;9.20;6.90;;;29.10;65.00;;;;;;4991368;28;20400;-85
2022/08/21 12:40:03;;;;;;;6.13;2.83;;;29.30;62.20;;;;;;4979092;28;20048;-87
2022/08/21 12:42:47;;;;;;;7.32;3.03;;;29.60;62.10;;;;;;4990388;28;20468;-87
2022/08/21 12:45:21;;;;;;;10.00;6.03;;;30.20;60.50;;;;;;4978625;28;20040;-86
2022/08/21 12:47:56;;;;;;;8.27;2.20;;;29.80;59.70;;;;;;4989485;28;20460;-87
2022/08/21 12:50:37;;;;;;;10.30;2.55;;;30.00;60.80;;;;;;4985464;28;20084;-86
2022/08/21 12:53:14;;;;;;;9.15;3.63;;;30.70;60.30;;;;;;4982745;28;20108;-86
2022/08/21 12:55:43;;;;;;;6.35;2.60;;;30.90;59.30;;;;;;4994177;28;20135;-86
2022/08/21 12:58:31;;;;;;;8.40;2.35;;;31.30;58.80;;;;;;4993545;28;20591;-86
2022/08/21 13:01:07;;;;;;;8.05;2.92;;;31.10;57.00;;;;;;5005068;28;20084;-86
2022/08/21 13:03:36;;;;;;;12.93;8.90;;;30.70;57.40;;;;;;4969281;28;20722;-86
2022/08/21 13:06:09;;;;;;;30.45;27.50;;;30.20;58.20;;;;;;4989905;28;20167;-86
2022/08/21 13:08:36;;;;;;;10.20;5.80;;;29.70;59.60;;;;;;5003521;28;20099;-85
2022/08/21 13:11:06;;;;;;;8.20;2.53;;;29.10;61.70;;;;;;4996635;28;20047;-86
2022/08/21 13:13:33;;;;;;;6.72;1.90;;;28.90;63.00;;;;;;5015003;28;20045;-86